sensor_id;sensor_type;location;lat;lon;timestamp;P1;durP1;ratioP1;P2;durP2;ratioP2
26718;SDS011;14326;50.794;6.060;2023-11-21T00:00:53;29.35;;;11.23;;
26718;SDS011;14326;50.794;6.060;2023-11-21T00:03:21;28.45;;;11.02;;
26718;SDS011;14326;50.794;6.060;2023-11-21T00:05:48;27.35;;;11.00;;
26718;SDS011;14326;50.794;6.060;2023-11-21T00:08:15;26.35;;;11.00;;
26718;SDS011;14326;50.794;6.060;2023-11-21T00:10:41;28.00;;;12.38;;
26718;SDS011;14326;50.794;6.060;2023-11-21T00:13:09;30.38;;;12.60;;
26718;SDS011;14326;50.794;6.060;2023-11-21T00:15:37;26.75;;;11.50;;
26718;SDS011;14326;50.794;6.060;2023-11-21T00:18:04;27.30;;;13.02;;
26718;SDS011;14326;50.794;6.060;2023-11-21T00:20:32;30.17;;;13.57;;
26718;SDS011;14326;50.794;6.060;2023-11-21T00:22:59;33.80;;;15.18;;
26718;SDS011;14326;50.794;6.060;2023-11-21T00:25:27;39.42;;;16.67;;
26718;SDS011;14326;50.794;6.060;2023-11-21T00:27:54;35.30;;;14.73;;
26718;SDS011;14326;50.794;6.060;2023-11-21T00:30:20;39.72;;;16.45;;
26718;SDS011;14326;50.794;6.060;2023-11-21T00:32:47;37.47;;;15.73;;
26718;SDS011;14326;50.794;6.060;2023-11-21T00:35:14;39.50;;;17.08;;
26718;SDS011;14326;50.794;6.060;2023-11-21T00:37:42;37.72;;;16.10;;
26718;SDS011;14326;50.794;6.060;2023-11-21T00:40:09;33.35;;;15.45;;
26718;SDS011;14326;50.794;6.060;2023-11-21T00:42:37;36.95;;;16.13;;
26718;SDS011;14326;50.794;6.060;2023-11-21T00:45:04;38.88;;;16.08;;
26718;SDS011;14326;50.794;6.060;2023-11-21T00:47:32;39.40;;;17.42;;
26718;SDS011;14326;50.794;6.060;2023-11-21T00:49:59;35.10;;;16.02;;
26718;SDS011;14326;50.794;6.060;2023-11-21T00:52:25;36.97;;;16.38;;
26718;SDS011;14326;50.794;6.060;2023-11-21T00:54:53;37.42;;;16.42;;
26718;SDS011;14326;50.794;6.060;2023-11-21T00:57:20;38.63;;;16.38;;
26718;SDS011;14326;50.794;6.060;2023-11-21T00:59:46;41.10;;;17.77;;
26718;SDS011;14326;50.794;6.060;2023-11-21T01:02:13;38.78;;;16.85;;
26718;SDS011;14326;50.794;6.060;2023-11-21T01:04:40;36.85;;;15.82;;
26718;SDS011;14326;50.794;6.060;2023-11-21T01:07:07;37.20;;;15.07;;
26718;SDS011;14326;50.794;6.060;2023-11-21T01:09:33;36.83;;;16.80;;
26718;SDS011;14326;50.794;6.060;2023-11-21T01:12:01;37.33;;;15.18;;
26718;SDS011;14326;50.794;6.060;2023-11-21T01:14:28;33.83;;;15.45;;
26718;SDS011;14326;50.794;6.060;2023-11-21T01:16:55;36.30;;;15.23;;
26718;SDS011;14326;50.794;6.060;2023-11-21T01:19:21;40.38;;;16.73;;
26718;SDS011;14326;50.794;6.060;2023-11-21T01:21:48;35.70;;;16.25;;
26718;SDS011;14326;50.794;6.060;2023-11-21T01:24:14;36.92;;;15.68;;
26718;SDS011;14326;50.794;6.060;2023-11-21T01:26:41;42.42;;;17.42;;
26718;SDS011;14326;50.794;6.060;2023-11-21T01:29:09;40.47;;;18.50;;
26718;SDS011;14326;50.794;6.060;2023-11-21T01:31:36;38.70;;;17.02;;
26718;SDS011;14326;50.794;6.060;2023-11-21T01:34:03;41.28;;;17.70;;
26718;SDS011;14326;50.794;6.060;2023-11-21T01:36:30;42.75;;;18.85;;
26718;SDS011;14326;50.794;6.060;2023-11-21T01:38:58;42.38;;;18.67;;
26718;SDS011;14326;50.794;6.060;2023-11-21T01:41:25;41.50;;;18.15;;
26718;SDS011;14326;50.794;6.060;2023-11-21T01:43:53;39.20;;;16.58;;
26718;SDS011;14326;50.794;6.060;2023-11-21T01:46:21;39.17;;;18.27;;
26718;SDS011;14326;50.794;6.060;2023-11-21T01:48:49;41.47;;;16.55;;
26718;SDS011;14326;50.794;6.060;2023-11-21T01:51:16;38.75;;;15.82;;
26718;SDS011;14326;50.794;6.060;2023-11-21T01:53:44;39.30;;;16.95;;
26718;SDS011;14326;50.794;6.060;2023-11-21T01:56:11;37.42;;;16.42;;
26718;SDS011;14326;50.794;6.060;2023-11-21T01:58:39;38.83;;;18.00;;
26718;SDS011;14326;50.794;6.060;2023-11-21T02:01:05;36.35;;;16.60;;
26718;SDS011;14326;50.794;6.060;2023-11-21T02:03:33;34.08;;;14.95;;
26718;SDS011;14326;50.794;6.060;2023-11-21T02:06:00;35.55;;;15.80;;
26718;SDS011;14326;50.794;6.060;2023-11-21T02:08:26;37.60;;;16.70;;
26718;SDS011;14326;50.794;6.060;2023-11-21T02:10:53;34.88;;;15.55;;
26718;SDS011;14326;50.794;6.060;2023-11-21T02:13:20;38.53;;;16.27;;
26718;SDS011;14326;50.794;6.060;2023-11-21T02:15:46;36.95;;;16.27;;
26718;SDS011;14326;50.794;6.060;2023-11-21T02:18:14;34.40;;;15.95;;
26718;SDS011;14326;50.794;6.060;2023-11-21T02:20:44;37.50;;;14.90;;
26718;SDS011;14326;50.794;6.060;2023-11-21T02:23:13;35.72;;;15.02;;
26718;SDS011;14326;50.794;6.060;2023-11-21T02:25:39;33.65;;;14.57;;
26718;SDS011;14326;50.794;6.060;2023-11-21T02:28:07;35.53;;;14.88;;
26718;SDS011;14326;50.794;6.060;2023-11-21T02:30:34;36.67;;;14.88;;
26718;SDS011;14326;50.794;6.060;2023-11-21T02:33:02;35.45;;;14.00;;
26718;SDS011;14326;50.794;6.060;2023-11-21T02:35:28;32.80;;;14.15;;
26718;SDS011;14326;50.794;6.060;2023-11-21T02:37:56;33.63;;;13.80;;
26718;SDS011;14326;50.794;6.060;2023-11-21T02:40:24;35.00;;;15.45;;
26718;SDS011;14326;50.794;6.060;2023-11-21T02:42:51;33.83;;;15.40;;
26718;SDS011;14326;50.794;6.060;2023-11-21T02:45:19;34.47;;;14.35;;
26718;SDS011;14326;50.794;6.060;2023-11-21T02:47:46;33.95;;;14.73;;
26718;SDS011;14326;50.794;6.060;2023-11-21T02:50:14;34.78;;;14.43;;
26718;SDS011;14326;50.794;6.060;2023-11-21T02:52:41;38.90;;;16.00;;
26718;SDS011;14326;50.794;6.060;2023-11-21T02:55:08;37.25;;;16.38;;
26718;SDS011;14326;50.794;6.060;2023-11-21T02:57:36;37.53;;;15.68;;
26718;SDS011;14326;50.794;6.060;2023-11-21T03:00:03;36.22;;;16.05;;
26718;SDS011;14326;50.794;6.060;2023-11-21T03:02:32;40.50;;;16.30;;
26718;SDS011;14326;50.794;6.060;2023-11-21T03:05:01;36.28;;;15.32;;
26718;SDS011;14326;50.794;6.060;2023-11-21T03:07:30;34.75;;;15.38;;
26718;SDS011;14326;50.794;6.060;2023-11-21T03:09:56;35.33;;;15.43;;
26718;SDS011;14326;50.794;6.060;2023-11-21T03:12:23;36.65;;;15.98;;
26718;SDS011;14326;50.794;6.060;2023-11-21T03:14:51;36.33;;;14.77;;
26718;SDS011;14326;50.794;6.060;2023-11-21T03:17:19;41.58;;;16.35;;
26718;SDS011;14326;50.794;6.060;2023-11-21T03:19:46;37.97;;;16.55;;
26718;SDS011;14326;50.794;6.060;2023-11-21T03:22:12;36.58;;;14.50;;
26718;SDS011;14326;50.794;6.060;2023-11-21T03:24:39;37.63;;;16.45;;
26718;SDS011;14326;50.794;6.060;2023-11-21T03:27:05;36.60;;;15.68;;
26718;SDS011;14326;50.794;6.060;2023-11-21T03:29:33;33.15;;;13.90;;
26718;SDS011;14326;50.794;6.060;2023-11-21T03:32:01;34.78;;;15.20;;
26718;SDS011;14326;50.794;6.060;2023-11-21T03:34:27;35.22;;;14.15;;
26718;SDS011;14326;50.794;6.060;2023-11-21T03:36:54;34.78;;;14.57;;
26718;SDS011;14326;50.794;6.060;2023-11-21T03:39:21;37.58;;;16.08;;
26718;SDS011;14326;50.794;6.060;2023-11-21T03:41:48;34.95;;;14.25;;
26718;SDS011;14326;50.794;6.060;2023-11-21T03:44:16;36.40;;;14.48;;
26718;SDS011;14326;50.794;6.060;2023-11-21T03:46:43;31.92;;;15.07;;
26718;SDS011;14326;50.794;6.060;2023-11-21T03:49:11;33.78;;;14.27;;
26718;SDS011;14326;50.794;6.060;2023-11-21T03:51:38;32.45;;;13.48;;
26718;SDS011;14326;50.794;6.060;2023-11-21T03:54:05;35.75;;;15.07;;
26718;SDS011;14326;50.794;6.060;2023-11-21T03:56:31;34.95;;;14.43;;
26718;SDS011;14326;50.794;6.060;2023-11-21T03:58:58;30.83;;;13.88;;
26718;SDS011;14326;50.794;6.060;2023-11-21T04:01:25;30.85;;;12.85;;
26718;SDS011;14326;50.794;6.060;2023-11-21T04:03:51;33.88;;;13.27;;
26718;SDS011;14326;50.794;6.060;2023-11-21T04:06:19;32.20;;;13.13;;
26718;SDS011;14326;50.794;6.060;2023-11-21T04:08:46;30.42;;;12.57;;
26718;SDS011;14326;50.794;6.060;2023-11-21T04:11:12;29.50;;;11.40;;
26718;SDS011;14326;50.794;6.060;2023-11-21T04:13:39;29.25;;;11.63;;
26718;SDS011;14326;50.794;6.060;2023-11-21T04:16:08;29.02;;;12.50;;
26718;SDS011;14326;50.794;6.060;2023-11-21T04:18:35;31.75;;;13.07;;
26718;SDS011;14326;50.794;6.060;2023-11-21T04:21:02;30.75;;;12.48;;
26718;SDS011;14326;50.794;6.060;2023-11-21T04:23:31;29.40;;;12.45;;
26718;SDS011;14326;50.794;6.060;2023-11-21T04:25:57;33.88;;;11.65;;
26718;SDS011;14326;50.794;6.060;2023-11-21T04:28:24;30.33;;;11.73;;
26718;SDS011;14326;50.794;6.060;2023-11-21T04:30:51;33.22;;;11.88;;
26718;SDS011;14326;50.794;6.060;2023-11-21T04:33:17;30.65;;;12.18;;
26718;SDS011;14326;50.794;6.060;2023-11-21T04:35:44;33.10;;;12.90;;
26718;SDS011;14326;50.794;6.060;2023-11-21T04:38:11;34.42;;;13.52;;
26718;SDS011;14326;50.794;6.060;2023-11-21T04:40:39;34.00;;;13.95;;
26718;SDS011;14326;50.794;6.060;2023-11-21T04:43:05;29.60;;;12.48;;
26718;SDS011;14326;50.794;6.060;2023-11-21T04:45:32;30.27;;;12.00;;
26718;SDS011;14326;50.794;6.060;2023-11-21T04:47:59;33.58;;;11.75;;
26718;SDS011;14326;50.794;6.060;2023-11-21T04:50:25;29.60;;;12.50;;
26718;SDS011;14326;50.794;6.060;2023-11-21T04:52:52;33.58;;;13.73;;
26718;SDS011;14326;50.794;6.060;2023-11-21T04:55:19;33.97;;;13.30;;
26718;SDS011;14326;50.794;6.060;2023-11-21T04:57:47;34.35;;;13.73;;
26718;SDS011;14326;50.794;6.060;2023-11-21T05:00:14;34.47;;;14.13;;
26718;SDS011;14326;50.794;6.060;2023-11-21T05:02:41;29.15;;;12.00;;
26718;SDS011;14326;50.794;6.060;2023-11-21T05:05:09;31.25;;;12.82;;
26718;SDS011;14326;50.794;6.060;2023-11-21T05:07:36;32.03;;;13.05;;
26718;SDS011;14326;50.794;6.060;2023-11-21T05:10:03;30.80;;;12.90;;
26718;SDS011;14326;50.794;6.060;2023-11-21T05:12:33;35.15;;;13.60;;
26718;SDS011;14326;50.794;6.060;2023-11-21T05:15:03;36.00;;;14.82;;
26718;SDS011;14326;50.794;6.060;2023-11-21T05:17:32;36.17;;;13.15;;
26718;SDS011;14326;50.794;6.060;2023-11-21T05:19:59;38.85;;;14.65;;
26718;SDS011;14326;50.794;6.060;2023-11-21T05:22:26;35.63;;;13.02;;
26718;SDS011;14326;50.794;6.060;2023-11-21T05:24:53;36.33;;;14.20;;
26718;SDS011;14326;50.794;6.060;2023-11-21T05:27:20;42.10;;;14.70;;
26718;SDS011;14326;50.794;6.060;2023-11-21T05:29:46;38.97;;;15.95;;
26718;SDS011;14326;50.794;6.060;2023-11-21T05:32:14;40.97;;;16.30;;
26718;SDS011;14326;50.794;6.060;2023-11-21T05:34:42;41.63;;;15.02;;
26718;SDS011;14326;50.794;6.060;2023-11-21T05:37:09;36.83;;;13.52;;
26718;SDS011;14326;50.794;6.060;2023-11-21T05:39:35;43.08;;;16.20;;
26718;SDS011;14326;50.794;6.060;2023-11-21T05:42:02;36.20;;;14.23;;
26718;SDS011;14326;50.794;6.060;2023-11-21T05:44:30;35.22;;;14.00;;
26718;SDS011;14326;50.794;6.060;2023-11-21T05:46:56;38.20;;;14.93;;
26718;SDS011;14326;50.794;6.060;2023-11-21T05:49:25;37.47;;;14.35;;
26718;SDS011;14326;50.794;6.060;2023-11-21T05:51:52;39.30;;;15.00;;
26718;SDS011;14326;50.794;6.060;2023-11-21T05:54:20;38.80;;;14.05;;
26718;SDS011;14326;50.794;6.060;2023-11-21T05:56:47;40.65;;;15.32;;
26718;SDS011;14326;50.794;6.060;2023-11-21T05:59:14;39.35;;;14.32;;
26718;SDS011;14326;50.794;6.060;2023-11-21T06:01:41;42.90;;;15.82;;
26718;SDS011;14326;50.794;6.060;2023-11-21T06:04:07;39.08;;;14.98;;
26718;SDS011;14326;50.794;6.060;2023-11-21T06:06:36;40.22;;;14.75;;
26718;SDS011;14326;50.794;6.060;2023-11-21T06:09:02;38.92;;;15.32;;
26718;SDS011;14326;50.794;6.060;2023-11-21T06:11:30;40.17;;;15.07;;
26718;SDS011;14326;50.794;6.060;2023-11-21T06:13:57;41.58;;;15.05;;
26718;SDS011;14326;50.794;6.060;2023-11-21T06:16:24;39.40;;;14.90;;
26718;SDS011;14326;50.794;6.060;2023-11-21T06:18:50;45.90;;;16.63;;
26718;SDS011;14326;50.794;6.060;2023-11-21T06:21:17;43.55;;;17.05;;
26718;SDS011;14326;50.794;6.060;2023-11-21T06:23:45;42.15;;;15.90;;
26718;SDS011;14326;50.794;6.060;2023-11-21T06:26:11;43.28;;;16.98;;
26718;SDS011;14326;50.794;6.060;2023-11-21T06:28:39;48.08;;;17.80;;
26718;SDS011;14326;50.794;6.060;2023-11-21T06:31:06;44.50;;;15.90;;
26718;SDS011;14326;50.794;6.060;2023-11-21T06:33:32;51.55;;;19.00;;
26718;SDS011;14326;50.794;6.060;2023-11-21T06:35:59;45.85;;;16.98;;
26718;SDS011;14326;50.794;6.060;2023-11-21T06:38:27;52.92;;;18.90;;
26718;SDS011;14326;50.794;6.060;2023-11-21T06:40:56;55.45;;;21.15;;
26718;SDS011;14326;50.794;6.060;2023-11-21T06:43:23;46.25;;;18.23;;
26718;SDS011;14326;50.794;6.060;2023-11-21T06:45:49;46.95;;;18.02;;
26718;SDS011;14326;50.794;6.060;2023-11-21T06:48:16;47.30;;;17.02;;
26718;SDS011;14326;50.794;6.060;2023-11-21T06:50:43;47.17;;;19.05;;
26718;SDS011;14326;50.794;6.060;2023-11-21T06:53:09;54.63;;;18.52;;
26718;SDS011;14326;50.794;6.060;2023-11-21T06:55:36;46.25;;;18.67;;
26718;SDS011;14326;50.794;6.060;2023-11-21T06:58:04;47.33;;;17.98;;
26718;SDS011;14326;50.794;6.060;2023-11-21T07:00:31;46.03;;;17.98;;
26718;SDS011;14326;50.794;6.060;2023-11-21T07:02:58;49.00;;;18.33;;
26718;SDS011;14326;50.794;6.060;2023-11-21T07:05:24;48.58;;;18.23;;
26718;SDS011;14326;50.794;6.060;2023-11-21T07:07:51;51.30;;;18.70;;
26718;SDS011;14326;50.794;6.060;2023-11-21T07:10:19;48.65;;;18.77;;
26718;SDS011;14326;50.794;6.060;2023-11-21T07:12:45;48.33;;;18.42;;
26718;SDS011;14326;50.794;6.060;2023-11-21T07:15:13;47.10;;;19.48;;
26718;SDS011;14326;50.794;6.060;2023-11-21T07:17:40;50.45;;;19.45;;
26718;SDS011;14326;50.794;6.060;2023-11-21T07:20:07;48.42;;;19.52;;
26718;SDS011;14326;50.794;6.060;2023-11-21T07:22:34;47.88;;;18.15;;
26718;SDS011;14326;50.794;6.060;2023-11-21T07:25:01;52.05;;;18.58;;
26718;SDS011;14326;50.794;6.060;2023-11-21T07:27:27;49.00;;;19.48;;
26718;SDS011;14326;50.794;6.060;2023-11-21T07:29:54;54.13;;;20.25;;
26718;SDS011;14326;50.794;6.060;2023-11-21T07:32:22;51.22;;;18.85;;
26718;SDS011;14326;50.794;6.060;2023-11-21T07:34:48;56.22;;;19.52;;
26718;SDS011;14326;50.794;6.060;2023-11-21T07:37:15;52.30;;;20.10;;
26718;SDS011;14326;50.794;6.060;2023-11-21T07:39:42;63.55;;;22.70;;
26718;SDS011;14326;50.794;6.060;2023-11-21T07:42:09;58.55;;;20.88;;
26718;SDS011;14326;50.794;6.060;2023-11-21T07:44:36;54.95;;;20.50;;
26718;SDS011;14326;50.794;6.060;2023-11-21T07:47:02;59.20;;;21.55;;
26718;SDS011;14326;50.794;6.060;2023-11-21T07:49:31;57.65;;;19.95;;
26718;SDS011;14326;50.794;6.060;2023-11-21T07:51:57;71.18;;;22.35;;
26718;SDS011;14326;50.794;6.060;2023-11-21T07:54:24;64.80;;;21.67;;
26718;SDS011;14326;50.794;6.060;2023-11-21T07:56:50;72.35;;;22.33;;
26718;SDS011;14326;50.794;6.060;2023-11-21T07:59:17;65.55;;;21.05;;
26718;SDS011;14326;50.794;6.060;2023-11-21T08:01:44;61.67;;;19.75;;
26718;SDS011;14326;50.794;6.060;2023-11-21T08:04:11;70.85;;;21.58;;
26718;SDS011;14326;50.794;6.060;2023-11-21T08:06:39;79.63;;;22.40;;
26718;SDS011;14326;50.794;6.060;2023-11-21T08:09:06;73.47;;;22.30;;
26718;SDS011;14326;50.794;6.060;2023-11-21T08:11:34;68.78;;;22.38;;
26718;SDS011;14326;50.794;6.060;2023-11-21T08:14:00;76.10;;;23.40;;
26718;SDS011;14326;50.794;6.060;2023-11-21T08:16:27;81.35;;;21.60;;
26718;SDS011;14326;50.794;6.060;2023-11-21T08:18:53;63.83;;;20.63;;
26718;SDS011;14326;50.794;6.060;2023-11-21T08:21:20;68.80;;;21.00;;
26718;SDS011;14326;50.794;6.060;2023-11-21T08:23:50;63.95;;;20.23;;
26718;SDS011;14326;50.794;6.060;2023-11-21T08:26:19;60.45;;;19.27;;
26718;SDS011;14326;50.794;6.060;2023-11-21T08:28:45;58.97;;;18.50;;
26718;SDS011;14326;50.794;6.060;2023-11-21T08:31:13;71.20;;;19.90;;
26718;SDS011;14326;50.794;6.060;2023-11-21T08:33:40;63.00;;;19.35;;
26718;SDS011;14326;50.794;6.060;2023-11-21T08:36:07;54.40;;;18.02;;
26718;SDS011;14326;50.794;6.060;2023-11-21T08:38:36;59.65;;;18.33;;
26718;SDS011;14326;50.794;6.060;2023-11-21T08:41:04;58.42;;;17.35;;
26718;SDS011;14326;50.794;6.060;2023-11-21T08:46:00;58.47;;;18.13;;
26718;SDS011;14326;50.794;6.060;2023-11-21T08:48:26;57.80;;;17.95;;
26718;SDS011;14326;50.794;6.060;2023-11-21T08:50:54;56.50;;;17.75;;
26718;SDS011;14326;50.794;6.060;2023-11-21T08:53:21;56.78;;;18.30;;
26718;SDS011;14326;50.794;6.060;2023-11-21T08:55:48;58.67;;;20.23;;
26718;SDS011;14326;50.794;6.060;2023-11-21T08:58:16;64.55;;;19.42;;
26718;SDS011;14326;50.794;6.060;2023-11-21T09:00:43;62.33;;;19.85;;
26718;SDS011;14326;50.794;6.060;2023-11-21T09:03:11;64.00;;;19.58;;
26718;SDS011;14326;50.794;6.060;2023-11-21T09:05:37;53.55;;;19.00;;
26718;SDS011;14326;50.794;6.060;2023-11-21T09:08:05;64.93;;;21.13;;
26718;SDS011;14326;50.794;6.060;2023-11-21T09:10:32;72.75;;;21.13;;
26718;SDS011;14326;50.794;6.060;2023-11-21T09:13:00;76.72;;;22.92;;
26718;SDS011;14326;50.794;6.060;2023-11-21T09:15:28;71.03;;;21.10;;
26718;SDS011;14326;50.794;6.060;2023-11-21T09:17:55;78.75;;;22.42;;
26718;SDS011;14326;50.794;6.060;2023-11-21T09:20:22;80.40;;;23.48;;
26718;SDS011;14326;50.794;6.060;2023-11-21T09:22:49;70.22;;;22.88;;
26718;SDS011;14326;50.794;6.060;2023-11-21T09:25:15;67.72;;;22.45;;
26718;SDS011;14326;50.794;6.060;2023-11-21T09:27:42;72.22;;;24.02;;
26718;SDS011;14326;50.794;6.060;2023-11-21T09:30:09;77.53;;;23.38;;
26718;SDS011;14326;50.794;6.060;2023-11-21T09:32:37;64.15;;;20.83;;
26718;SDS011;14326;50.794;6.060;2023-11-21T09:35:05;71.15;;;21.48;;
26718;SDS011;14326;50.794;6.060;2023-11-21T09:37:33;66.70;;;19.77;;
26718;SDS011;14326;50.794;6.060;2023-11-21T09:40:01;66.68;;;19.83;;
26718;SDS011;14326;50.794;6.060;2023-11-21T09:42:29;58.85;;;18.92;;
26718;SDS011;14326;50.794;6.060;2023-11-21T09:45:02;59.63;;;18.85;;
26718;SDS011;14326;50.794;6.060;2023-11-21T09:47:32;60.45;;;19.70;;
26718;SDS011;14326;50.794;6.060;2023-11-21T09:50:03;47.63;;;14.73;;
26718;SDS011;14326;50.794;6.060;2023-11-21T09:52:33;61.33;;;18.98;;
26718;SDS011;14326;50.794;6.060;2023-11-21T09:55:13;59.88;;;18.73;;
26718;SDS011;14326;50.794;6.060;2023-11-21T09:57:41;55.72;;;18.17;;
26718;SDS011;14326;50.794;6.060;2023-11-21T10:00:08;62.03;;;19.48;;
26718;SDS011;14326;50.794;6.060;2023-11-21T10:02:42;50.28;;;17.42;;
26718;SDS011;14326;50.794;6.060;2023-11-21T10:05:11;55.95;;;17.98;;
26718;SDS011;14326;50.794;6.060;2023-11-21T10:07:38;52.33;;;17.27;;
26718;SDS011;14326;50.794;6.060;2023-11-21T10:10:06;54.65;;;18.52;;
26718;SDS011;14326;50.794;6.060;2023-11-21T10:12:34;53.28;;;17.00;;
26718;SDS011;14326;50.794;6.060;2023-11-21T10:15:02;57.88;;;17.15;;
26718;SDS011;14326;50.794;6.060;2023-11-21T10:17:33;53.35;;;16.50;;
26718;SDS011;14326;50.794;6.060;2023-11-21T10:20:08;54.28;;;16.20;;
26718;SDS011;14326;50.794;6.060;2023-11-21T10:25:07;52.13;;;15.75;;
26718;SDS011;14326;50.794;6.060;2023-11-21T10:27:34;43.88;;;14.77;;
26718;SDS011;14326;50.794;6.060;2023-11-21T10:30:01;41.17;;;15.02;;
26718;SDS011;14326;50.794;6.060;2023-11-21T10:32:28;44.42;;;13.65;;
26718;SDS011;14326;50.794;6.060;2023-11-21T10:34:57;40.58;;;13.30;;
26718;SDS011;14326;50.794;6.060;2023-11-21T10:37:26;40.72;;;12.68;;
26718;SDS011;14326;50.794;6.060;2023-11-21T10:39:56;42.38;;;13.82;;
26718;SDS011;14326;50.794;6.060;2023-11-21T10:42:23;44.10;;;14.68;;
26718;SDS011;14326;50.794;6.060;2023-11-21T10:44:52;45.33;;;16.58;;
26718;SDS011;14326;50.794;6.060;2023-11-21T10:47:19;55.60;;;16.27;;
26718;SDS011;14326;50.794;6.060;2023-11-21T10:49:48;44.38;;;15.75;;
26718;SDS011;14326;50.794;6.060;2023-11-21T10:52:15;45.50;;;14.05;;
26718;SDS011;14326;50.794;6.060;2023-11-21T10:54:44;44.83;;;14.13;;
26718;SDS011;14326;50.794;6.060;2023-11-21T10:57:10;40.83;;;13.73;;
26718;SDS011;14326;50.794;6.060;2023-11-21T10:59:40;44.75;;;14.32;;
26718;SDS011;14326;50.794;6.060;2023-11-21T11:02:11;45.10;;;14.88;;
26718;SDS011;14326;50.794;6.060;2023-11-21T11:04:48;46.83;;;14.05;;
26718;SDS011;14326;50.794;6.060;2023-11-21T11:07:15;47.22;;;14.57;;
26718;SDS011;14326;50.794;6.060;2023-11-21T11:09:43;40.47;;;14.32;;
26718;SDS011;14326;50.794;6.060;2023-11-21T11:12:12;42.15;;;13.35;;
26718;SDS011;14326;50.794;6.060;2023-11-21T11:14:42;40.83;;;13.23;;
26718;SDS011;14326;50.794;6.060;2023-11-21T11:17:10;39.10;;;12.52;;
26718;SDS011;14326;50.794;6.060;2023-11-21T11:19:37;41.58;;;13.65;;
26718;SDS011;14326;50.794;6.060;2023-11-21T11:22:14;44.03;;;13.23;;
26718;SDS011;14326;50.794;6.060;2023-11-21T11:25:06;46.28;;;13.90;;
26718;SDS011;14326;50.794;6.060;2023-11-21T11:27:48;39.58;;;12.45;;
26718;SDS011;14326;50.794;6.060;2023-11-21T11:30:26;40.85;;;14.00;;
26718;SDS011;14326;50.794;6.060;2023-11-21T11:33:05;36.03;;;13.05;;
26718;SDS011;14326;50.794;6.060;2023-11-21T11:35:38;41.08;;;12.43;;
26718;SDS011;14326;50.794;6.060;2023-11-21T11:38:14;32.78;;;10.82;;
26718;SDS011;14326;50.794;6.060;2023-11-21T11:40:45;32.83;;;10.82;;
26718;SDS011;14326;50.794;6.060;2023-11-21T11:43:12;34.53;;;10.65;;
26718;SDS011;14326;50.794;6.060;2023-11-21T11:45:39;35.95;;;11.88;;
26718;SDS011;14326;50.794;6.060;2023-11-21T11:48:07;34.95;;;10.77;;
26718;SDS011;14326;50.794;6.060;2023-11-21T11:50:34;37.67;;;10.95;;
26718;SDS011;14326;50.794;6.060;2023-11-21T11:53:14;29.13;;;10.30;;
26718;SDS011;14326;50.794;6.060;2023-11-21T11:55:43;34.67;;;10.98;;
26718;SDS011;14326;50.794;6.060;2023-11-21T11:58:10;38.35;;;10.48;;
26718;SDS011;14326;50.794;6.060;2023-11-21T12:00:37;37.55;;;11.35;;
26718;SDS011;14326;50.794;6.060;2023-11-21T12:03:07;30.88;;;10.32;;
26718;SDS011;14326;50.794;6.060;2023-11-21T12:05:35;36.42;;;11.43;;
26718;SDS011;14326;50.794;6.060;2023-11-21T12:08:04;30.77;;;10.48;;
26718;SDS011;14326;50.794;6.060;2023-11-21T12:10:32;32.60;;;10.65;;
26718;SDS011;14326;50.794;6.060;2023-11-21T12:13:02;37.95;;;11.73;;
26718;SDS011;14326;50.794;6.060;2023-11-21T12:15:32;36.78;;;12.20;;
26718;SDS011;14326;50.794;6.060;2023-11-21T12:18:00;34.90;;;12.68;;
26718;SDS011;14326;50.794;6.060;2023-11-21T12:20:27;37.60;;;11.43;;
26718;SDS011;14326;50.794;6.060;2023-11-21T12:22:54;36.40;;;11.27;;
26718;SDS011;14326;50.794;6.060;2023-11-21T12:25:24;34.42;;;11.43;;
26718;SDS011;14326;50.794;6.060;2023-11-21T12:27:54;31.85;;;9.88;;
26718;SDS011;14326;50.794;6.060;2023-11-21T12:30:23;35.40;;;11.38;;
26718;SDS011;14326;50.794;6.060;2023-11-21T12:32:53;34.08;;;10.75;;
26718;SDS011;14326;50.794;6.060;2023-11-21T12:35:21;31.60;;;9.30;;
26718;SDS011;14326;50.794;6.060;2023-11-21T12:37:49;28.55;;;10.02;;
26718;SDS011;14326;50.794;6.060;2023-11-21T12:40:18;31.95;;;9.52;;
26718;SDS011;14326;50.794;6.060;2023-11-21T12:42:48;31.37;;;10.83;;
26718;SDS011;14326;50.794;6.060;2023-11-21T12:45:20;37.80;;;12.60;;
26718;SDS011;14326;50.794;6.060;2023-11-21T12:47:49;35.83;;;11.85;;
26718;SDS011;14326;50.794;6.060;2023-11-21T12:50:21;36.17;;;12.00;;
26718;SDS011;14326;50.794;6.060;2023-11-21T12:52:50;40.42;;;12.77;;
26718;SDS011;14326;50.794;6.060;2023-11-21T12:55:19;34.42;;;12.13;;
26718;SDS011;14326;50.794;6.060;2023-11-21T12:57:48;31.65;;;10.25;;
26718;SDS011;14326;50.794;6.060;2023-11-21T13:00:16;30.40;;;10.77;;
26718;SDS011;14326;50.794;6.060;2023-11-21T13:02:54;32.83;;;9.60;;
26718;SDS011;14326;50.794;6.060;2023-11-21T13:05:23;34.70;;;10.40;;
26718;SDS011;14326;50.794;6.060;2023-11-21T13:07:51;35.60;;;10.60;;
26718;SDS011;14326;50.794;6.060;2023-11-21T13:10:19;26.40;;;9.00;;
26718;SDS011;14326;50.794;6.060;2023-11-21T13:12:52;37.50;;;10.30;;
26718;SDS011;14326;50.794;6.060;2023-11-21T13:15:20;33.83;;;9.90;;
26718;SDS011;14326;50.794;6.060;2023-11-21T13:17:46;31.05;;;9.68;;
26718;SDS011;14326;50.794;6.060;2023-11-21T13:20:16;26.23;;;8.82;;
26718;SDS011;14326;50.794;6.060;2023-11-21T13:25:13;19.85;;;5.05;;
26718;SDS011;14326;50.794;6.060;2023-11-21T13:27:42;24.95;;;6.00;;
26718;SDS011;14326;50.794;6.060;2023-11-21T13:30:11;24.08;;;5.85;;
26718;SDS011;14326;50.794;6.060;2023-11-21T13:35:07;23.42;;;6.53;;
26718;SDS011;14326;50.794;6.060;2023-11-21T13:37:48;22.08;;;6.15;;
26718;SDS011;14326;50.794;6.060;2023-11-21T13:40:19;26.48;;;8.05;;
26718;SDS011;14326;50.794;6.060;2023-11-21T13:42:48;27.90;;;6.90;;
26718;SDS011;14326;50.794;6.060;2023-11-21T13:45:18;32.00;;;8.00;;
26718;SDS011;14326;50.794;6.060;2023-11-21T13:47:47;16.67;;;6.13;;
26718;SDS011;14326;50.794;6.060;2023-11-21T13:50:16;30.70;;;9.90;;
26718;SDS011;14326;50.794;6.060;2023-11-21T13:52:49;28.38;;;8.55;;
26718;SDS011;14326;50.794;6.060;2023-11-21T13:55:18;27.20;;;9.48;;
26718;SDS011;14326;50.794;6.060;2023-11-21T13:57:45;29.05;;;9.38;;
26718;SDS011;14326;50.794;6.060;2023-11-21T14:00:15;27.25;;;7.90;;
26718;SDS011;14326;50.794;6.060;2023-11-21T14:03:06;28.70;;;9.75;;
26718;SDS011;14326;50.794;6.060;2023-11-21T14:05:42;28.95;;;10.13;;
26718;SDS011;14326;50.794;6.060;2023-11-21T14:08:11;30.33;;;10.02;;
26718;SDS011;14326;50.794;6.060;2023-11-21T14:10:41;32.58;;;10.68;;
26718;SDS011;14326;50.794;6.060;2023-11-21T14:13:09;30.02;;;9.52;;
26718;SDS011;14326;50.794;6.060;2023-11-21T14:15:37;29.23;;;9.40;;
26718;SDS011;14326;50.794;6.060;2023-11-21T14:18:07;28.08;;;9.70;;
26718;SDS011;14326;50.794;6.060;2023-11-21T14:20:35;25.67;;;9.77;;
26718;SDS011;14326;50.794;6.060;2023-11-21T14:23:02;26.58;;;9.48;;
26718;SDS011;14326;50.794;6.060;2023-11-21T14:25:30;29.52;;;11.38;;
26718;SDS011;14326;50.794;6.060;2023-11-21T14:27:57;25.88;;;9.85;;
26718;SDS011;14326;50.794;6.060;2023-11-21T14:30:24;31.58;;;10.18;;
26718;SDS011;14326;50.794;6.060;2023-11-21T14:32:52;28.25;;;10.07;;
26718;SDS011;14326;50.794;6.060;2023-11-21T14:35:18;29.60;;;10.93;;
26718;SDS011;14326;50.794;6.060;2023-11-21T14:37:45;35.10;;;10.73;;